createdAt,value
2019-01-31T00:02:41.745Z,-0.59
2019-01-31T00:05:50.138Z,-0.61
2019-01-31T00:09:43.176Z,-0.62
2019-01-31T00:13:03.183Z,-0.64
2019-01-31T00:16:28.329Z,-0.64
2019-01-31T00:19:33.231Z,-0.65
2019-01-31T00:23:25.661Z,-0.65
2019-01-31T00:27:06.629Z,-0.69
2019-01-31T00:30:47.193Z,-0.73
2019-01-31T00:34:18.915Z,-0.74
2019-01-31T00:37:26.244Z,-0.74
2019-01-31T00:41:09.568Z,-0.74
2019-01-31T00:44:01.640Z,-0.74
2019-01-31T00:47:39.406Z,-0.71
2019-01-31T00:51:06.066Z,-0.72
2019-01-31T00:54:18.708Z,-0.69
2019-01-31T00:57:43.023Z,-0.68
2019-01-31T01:01:15.366Z,-0.69
2019-01-31T01:05:17.560Z,-0.67
2019-01-31T01:08:32.575Z,-0.66
2019-01-31T01:11:53.955Z,-0.68
2019-01-31T01:15:31.829Z,-0.70
2019-01-31T01:18:32.453Z,-0.72
2019-01-31T01:22:13.802Z,-0.74
2019-01-31T01:25:26.027Z,-0.74
2019-01-31T01:28:57.672Z,-0.74
2019-01-31T01:32:27.303Z,-0.75
2019-01-31T01:36:02.112Z,-0.73
2019-01-31T01:39:31.146Z,-0.74
2019-01-31T01:42:49.572Z,-0.77
2019-01-31T01:46:21.273Z,-0.79
2019-01-31T01:49:37.507Z,-0.81
2019-01-31T01:52:53.730Z,-0.81
2019-01-31T01:55:43.277Z,-0.83
2019-01-31T01:58:51.298Z,-0.82
2019-01-31T02:02:25.625Z,-0.75
2019-01-31T02:05:39.184Z,-0.73
2019-01-31T02:09:01.044Z,-0.66
2019-01-31T02:12:24.727Z,-0.59
2019-01-31T02:15:55.766Z,-0.53
2019-01-31T02:19:16.706Z,-0.45
2019-01-31T02:23:07.927Z,-0.38
2019-01-31T02:26:43.062Z,-0.31
2019-01-31T02:29:57.169Z,-0.23
2019-01-31T02:33:19.101Z,-0.17
2019-01-31T02:36:49.514Z,-0.11
2019-01-31T02:39:53.888Z,-0.03
2019-01-31T02:43:09.771Z,0.03
2019-01-31T02:46:41.590Z,0.08
2019-01-31T02:50:06.610Z,0.13
2019-01-31T02:53:22.078Z,0.17
2019-01-31T02:56:49.091Z,0.22
2019-01-31T02:59:59.772Z,0.28
2019-01-31T03:03:38.831Z,0.29
2019-01-31T03:06:56.858Z,0.32
2019-01-31T03:11:08.890Z,0.36
2019-01-31T03:14:27.871Z,0.41
2019-01-31T03:18:01.825Z,0.47
2019-01-31T03:21:38.327Z,0.49
2019-01-31T03:25:12.898Z,0.49
2019-01-31T03:28:39.421Z,0.53
2019-01-31T03:31:54.288Z,0.55
2019-01-31T03:35:19.581Z,0.54
2019-01-31T03:38:42.752Z,0.55
2019-01-31T03:41:49.586Z,0.56
2019-01-31T03:44:43.407Z,0.59
2019-01-31T03:48:15.870Z,0.59
2019-01-31T03:51:53.887Z,0.61
2019-01-31T03:55:20.021Z,0.61
2019-01-31T03:58:47.558Z,0.65
2019-01-31T04:02:01.497Z,0.65
2019-01-31T04:05:30.411Z,0.67
2019-01-31T04:08:04.923Z,0.69
2019-01-31T04:10:39.935Z,0.70
2019-01-31T04:13:13.771Z,0.71
2019-01-31T04:15:47.941Z,0.74
2019-01-31T04:18:22.572Z,0.76
2019-01-31T04:20:56.864Z,0.77
2019-01-31T04:23:34.187Z,0.79
2019-01-31T04:26:11.221Z,0.81
2019-01-31T04:28:45.686Z,0.82
2019-01-31T04:31:28.260Z,0.83
2019-01-31T04:34:00.787Z,0.83
2019-01-31T04:36:35.943Z,0.83
2019-01-31T04:39:13.305Z,0.82
2019-01-31T04:41:48.087Z,0.81
2019-01-31T04:44:22.490Z,0.78
2019-01-31T04:46:57.666Z,0.76
2019-01-31T04:49:34.057Z,0.72
2019-01-31T04:52:09.428Z,0.71
2019-01-31T04:54:43.626Z,0.68
2019-01-31T04:57:17.503Z,0.66
2019-01-31T04:59:52.452Z,0.65
2019-01-31T05:02:26.300Z,0.59
2019-01-31T05:05:01.268Z,0.56
2019-01-31T05:07:36.066Z,0.53
2019-01-31T05:10:13.834Z,0.55
2019-01-31T05:12:48.519Z,0.50
2019-01-31T05:15:22.985Z,0.49
2019-01-31T05:17:57.478Z,0.45
2019-01-31T05:20:32.626Z,0.42
2019-01-31T05:23:07.634Z,0.42
2019-01-31T05:25:42.531Z,0.41
2019-01-31T05:28:18.533Z,0.37
2019-01-31T05:30:53.106Z,0.35
2019-01-31T05:33:27.527Z,0.33
2019-01-31T05:36:02.867Z,0.30
2019-01-31T05:38:38.049Z,0.29
2019-01-31T05:41:12.557Z,0.28
2019-01-31T05:43:46.853Z,0.27
2019-01-31T05:46:22.093Z,0.23
2019-01-31T05:48:57.095Z,0.23
2019-01-31T05:51:32.094Z,0.22
2019-01-31T05:54:06.300Z,0.21
2019-01-31T05:56:43.170Z,0.18
2019-01-31T05:59:18.056Z,0.15
2019-01-31T06:01:51.972Z,0.12
2019-01-31T06:04:27.628Z,0.11
2019-01-31T06:07:10.987Z,0.08
2019-01-31T06:09:39.477Z,0.05
2019-01-31T06:12:14.413Z,0.06
2019-01-31T06:14:49.587Z,0.07
2019-01-31T06:17:24.641Z,0.04
2019-01-31T06:19:58.935Z,0.03
2019-01-31T06:22:33.694Z,0.01
2019-01-31T06:25:08.508Z,0.01
2019-01-31T06:27:42.627Z,0.02
2019-01-31T06:30:18.418Z,0.00
2019-01-31T06:32:51.358Z,-0.01
2019-01-31T06:35:24.910Z,-0.04
2019-01-31T06:37:58.902Z,-0.05
2019-01-31T06:40:32.562Z,-0.06
2019-01-31T06:43:06.414Z,-0.08
2019-01-31T06:45:40.408Z,-0.09
2019-01-31T06:48:19.112Z,-0.10
2019-01-31T06:50:53.442Z,-0.13
2019-01-31T06:53:26.958Z,-0.14
2019-01-31T06:56:01.284Z,-0.16
2019-01-31T06:58:41.030Z,-0.16
2019-01-31T07:01:14.595Z,-0.17
2019-01-31T07:03:48.398Z,-0.18
2019-01-31T07:06:23.517Z,-0.17
2019-01-31T07:08:57.513Z,-0.17
2019-01-31T07:11:34.758Z,-0.19
2019-01-31T07:14:06.642Z,-0.19
2019-01-31T07:16:40.030Z,-0.22
2019-01-31T07:19:16.064Z,-0.21
2019-01-31T07:21:50.930Z,-0.20
2019-01-31T07:24:25.141Z,-0.18
2019-01-31T07:26:58.876Z,-0.15
2019-01-31T07:29:32.257Z,-0.13
2019-01-31T07:32:06.338Z,-0.10
2019-01-31T07:34:40.131Z,-0.08
2019-01-31T07:37:14.266Z,-0.06
2019-01-31T07:39:48.504Z,0.00
2019-01-31T07:42:22.394Z,0.04
2019-01-31T07:44:57.259Z,0.07
2019-01-31T07:47:31.764Z,0.11
2019-01-31T07:50:06.266Z,0.15
2019-01-31T07:52:41.828Z,0.19
2019-01-31T07:55:15.593Z,0.22
2019-01-31T07:57:48.995Z,0.26
2019-01-31T08:00:25.991Z,0.28
2019-01-31T08:02:59.754Z,0.34
2019-01-31T08:05:34.923Z,0.37
2019-01-31T08:08:10.119Z,0.40
2019-01-31T08:10:45.242Z,0.43
2019-01-31T08:13:18.797Z,0.49
2019-01-31T08:15:53.245Z,0.54
2019-01-31T08:18:28.177Z,0.57
2019-01-31T08:21:02.006Z,0.60
2019-01-31T08:23:36.610Z,0.65
2019-01-31T08:26:11.008Z,0.66
2019-01-31T08:28:45.331Z,0.70
2019-01-31T08:31:18.820Z,0.73
2019-01-31T08:33:53.711Z,0.78
2019-01-31T08:36:27.652Z,0.79
2019-01-31T08:39:01.423Z,0.84
2019-01-31T08:41:35.294Z,0.88
2019-01-31T08:44:10.706Z,0.91
2019-01-31T08:46:45.724Z,0.96
2019-01-31T08:49:19.139Z,1.02
2019-01-31T08:51:53.363Z,1.07
2019-01-31T08:54:27.306Z,1.10
2019-01-31T08:57:02.290Z,1.15
2019-01-31T08:59:36.143Z,1.18
2019-01-31T09:02:12.446Z,1.23
2019-01-31T09:04:45.655Z,1.28
2019-01-31T09:07:19.482Z,1.32
2019-01-31T09:09:53.640Z,1.37
2019-01-31T09:12:27.425Z,1.41
2019-01-31T09:15:01.945Z,1.44
2019-01-31T09:17:36.907Z,1.49
2019-01-31T09:20:13.309Z,1.53
2019-01-31T09:23:21.763Z,1.56
2019-01-31T09:26:47.928Z,1.61
2019-01-31T09:30:03.561Z,1.68
2019-01-31T09:33:17.977Z,1.75
2019-01-31T09:36:25.083Z,1.83
2019-01-31T09:40:18.928Z,1.93
2019-01-31T09:43:44.245Z,1.99
2019-01-31T09:47:11.830Z,2.07
2019-01-31T09:50:45.134Z,2.18
2019-01-31T09:54:21.332Z,2.27
2019-01-31T09:58:07.472Z,2.32
2019-01-31T10:01:53.663Z,2.35
2019-01-31T10:05:02.334Z,2.39
2019-01-31T10:08:14.877Z,2.41
2019-01-31T10:11:39.901Z,2.43
2019-01-31T10:15:08.383Z,2.50
2019-01-31T10:18:28.268Z,2.55
2019-01-31T10:22:15.757Z,2.60
2019-01-31T10:25:23.108Z,2.64
2019-01-31T10:28:32.413Z,2.66
2019-01-31T10:31:49.792Z,2.68
2019-01-31T10:35:13.697Z,2.71
2019-01-31T10:38:25.125Z,2.74
2019-01-31T10:41:40.208Z,2.78
2019-01-31T10:44:42.068Z,2.82
2019-01-31T10:48:15.499Z,2.89
2019-01-31T10:52:11.236Z,2.92
2019-01-31T10:55:41.683Z,2.97
2019-01-31T10:59:17.828Z,3.03
2019-01-31T11:02:49.655Z,3.07
2019-01-31T11:06:45.629Z,3.11
2019-01-31T11:10:19.257Z,3.19
2019-01-31T11:14:02.605Z,3.25
2019-01-31T11:17:56.015Z,3.30
2019-01-31T11:21:47.269Z,3.38
2019-01-31T11:25:20.572Z,3.48
2019-01-31T11:28:49.010Z,3.58
2019-01-31T11:31:39.754Z,3.69
2019-01-31T11:35:12.223Z,3.79
2019-01-31T11:38:55.778Z,3.89
2019-01-31T11:42:04.921Z,4.01
2019-01-31T11:45:40.887Z,4.09
2019-01-31T11:48:38.272Z,4.20
2019-01-31T11:52:28.238Z,4.26
2019-01-31T11:55:29.028Z,4.29
2019-01-31T11:58:51.838Z,4.36
2019-01-31T12:01:25.773Z,4.36
2019-01-31T12:04:07.841Z,4.40
2019-01-31T12:06:42.321Z,4.42
2019-01-31T12:09:23.156Z,4.42
2019-01-31T12:11:57.806Z,4.43
2019-01-31T12:14:32.672Z,4.45
2019-01-31T12:17:07.864Z,4.45
2019-01-31T12:19:41.897Z,4.43
2019-01-31T12:22:16.357Z,4.42
2019-01-31T12:24:51.201Z,4.45
2019-01-31T12:27:26.463Z,4.48
2019-01-31T12:30:01.816Z,4.51
2019-01-31T12:32:37.166Z,4.53
2019-01-31T12:35:10.823Z,4.58
2019-01-31T12:37:45.141Z,4.64
2019-01-31T12:40:19.741Z,4.69
2019-01-31T12:42:52.787Z,4.69
2019-01-31T12:45:26.370Z,4.71
2019-01-31T12:48:00.118Z,4.63
2019-01-31T12:50:34.029Z,4.68
2019-01-31T12:53:08.354Z,4.73
2019-01-31T12:55:43.156Z,4.84
2019-01-31T12:58:16.197Z,4.87
2019-01-31T13:00:50.543Z,4.91
2019-01-31T13:03:24.975Z,4.93
2019-01-31T13:05:59.137Z,4.94
2019-01-31T13:08:31.590Z,4.95
2019-01-31T13:11:06.674Z,4.94
2019-01-31T13:13:46.134Z,4.86
2019-01-31T13:16:13.981Z,4.86
2019-01-31T13:18:47.900Z,4.82
2019-01-31T13:21:20.913Z,4.83
2019-01-31T13:23:54.093Z,4.82
2019-01-31T13:26:27.357Z,4.81
2019-01-31T13:29:02.071Z,4.82
2019-01-31T13:31:38.917Z,4.82
2019-01-31T13:34:18.700Z,4.83
2019-01-31T13:36:52.554Z,4.86
2019-01-31T13:39:25.930Z,4.90
2019-01-31T13:41:59.523Z,5.22
2019-01-31T13:44:33.320Z,5.70
2019-01-31T13:47:07.721Z,6.32
2019-01-31T13:49:41.942Z,6.84
2019-01-31T13:52:16.167Z,7.29
2019-01-31T13:54:50.900Z,7.74
2019-01-31T13:57:25.574Z,7.82
2019-01-31T14:00:00.876Z,7.79
2019-01-31T14:02:34.707Z,7.86
2019-01-31T14:05:09.044Z,8.13
2019-01-31T14:07:43.001Z,8.41
2019-01-31T14:10:22.333Z,8.63
2019-01-31T14:12:55.833Z,8.85
2019-01-31T14:15:33.911Z,9.10
2019-01-31T14:18:07.859Z,9.33
2019-01-31T14:20:41.687Z,9.50
2019-01-31T14:23:15.058Z,9.68
2019-01-31T14:25:48.768Z,9.84
2019-01-31T14:28:22.565Z,9.99
2019-01-31T14:30:56.656Z,10.13
2019-01-31T14:33:30.902Z,10.14
2019-01-31T14:36:04.677Z,10.12
2019-01-31T14:38:37.474Z,10.17
2019-01-31T14:41:11.716Z,10.18
2019-01-31T14:43:46.164Z,10.14
2019-01-31T14:46:20.977Z,10.03
2019-01-31T14:48:54.666Z,9.96
2019-01-31T14:51:28.372Z,9.81
2019-01-31T14:54:02.217Z,9.66
2019-01-31T14:56:35.191Z,9.44
2019-01-31T14:59:09.069Z,9.06
2019-01-31T15:01:42.891Z,8.66
2019-01-31T15:04:17.084Z,8.29
2019-01-31T15:06:51.306Z,7.97
2019-01-31T15:09:24.720Z,7.63
2019-01-31T15:11:58.487Z,7.30
2019-01-31T15:14:32.625Z,7.02
2019-01-31T15:17:07.160Z,6.72
2019-01-31T15:19:40.946Z,6.48
2019-01-31T15:22:14.653Z,6.24
2019-01-31T15:24:48.460Z,6.03
2019-01-31T15:27:23.044Z,5.81
2019-01-31T15:29:56.564Z,5.60
2019-01-31T15:32:32.885Z,5.43
2019-01-31T15:35:06.346Z,5.26
2019-01-31T15:37:40.152Z,5.07
2019-01-31T15:40:18.854Z,4.92
2019-01-31T15:42:52.165Z,4.78
2019-01-31T15:45:26.606Z,4.61
2019-01-31T15:48:00.401Z,4.45
2019-01-31T15:50:34.901Z,4.32
2019-01-31T15:53:09.139Z,4.17
2019-01-31T15:55:43.192Z,4.04
2019-01-31T15:58:17.810Z,3.93
2019-01-31T16:00:54.374Z,3.83
2019-01-31T16:03:28.086Z,3.71
2019-01-31T16:06:01.821Z,3.59
2019-01-31T16:08:35.562Z,3.50
2019-01-31T16:11:09.926Z,3.41
2019-01-31T16:13:42.373Z,3.34
2019-01-31T16:16:16.120Z,3.25
2019-01-31T16:18:49.555Z,3.18
2019-01-31T16:21:23.480Z,3.10
2019-01-31T16:23:56.842Z,3.05
2019-01-31T16:26:30.776Z,2.98
2019-01-31T16:29:04.182Z,2.94
2019-01-31T16:31:37.557Z,2.88
2019-01-31T16:34:10.533Z,2.83
2019-01-31T16:36:44.869Z,2.78
2019-01-31T16:39:17.234Z,2.73
2019-01-31T16:41:50.749Z,2.68
2019-01-31T16:44:24.201Z,2.63
2019-01-31T16:46:57.265Z,2.58
2019-01-31T16:49:30.403Z,2.56
2019-01-31T16:52:02.788Z,2.50
2019-01-31T16:54:37.067Z,2.46
2019-01-31T16:57:10.513Z,2.41
2019-01-31T16:59:44.303Z,2.39
2019-01-31T17:02:17.744Z,2.36
2019-01-31T17:04:50.277Z,2.30
2019-01-31T17:07:24.217Z,2.25
2019-01-31T17:09:57.592Z,2.24
2019-01-31T17:12:31.172Z,2.20
2019-01-31T17:15:04.056Z,2.16
2019-01-31T17:17:36.614Z,2.14
2019-01-31T17:20:14.970Z,2.09
2019-01-31T17:22:48.833Z,2.06
2019-01-31T17:25:22.263Z,2.02
2019-01-31T17:27:56.598Z,2.02
2019-01-31T17:30:29.942Z,1.99
2019-01-31T17:33:03.929Z,1.95
2019-01-31T17:35:37.120Z,1.92
2019-01-31T17:38:11.301Z,1.90
2019-01-31T17:40:45.506Z,1.86
2019-01-31T17:43:19.024Z,1.85
2019-01-31T17:45:53.320Z,1.81
2019-01-31T17:48:27.027Z,1.79
2019-01-31T17:51:00.307Z,1.75
2019-01-31T17:53:34.228Z,1.73
2019-01-31T17:56:07.957Z,1.70
2019-01-31T17:58:41.970Z,1.68
2019-01-31T18:01:15.773Z,1.65
2019-01-31T18:03:49.579Z,1.63
2019-01-31T18:06:24.493Z,1.59
2019-01-31T18:08:59.633Z,1.56
2019-01-31T18:11:32.149Z,1.56
2019-01-31T18:14:05.949Z,1.51
2019-01-31T18:16:38.872Z,1.50
2019-01-31T18:19:11.395Z,1.50
2019-01-31T18:21:43.765Z,1.47
2019-01-31T18:24:16.308Z,1.47
2019-01-31T18:26:48.350Z,1.45
2019-01-31T18:29:20.364Z,1.46
2019-01-31T18:31:53.395Z,1.45
2019-01-31T18:34:25.825Z,1.43
2019-01-31T18:36:58.386Z,1.43
2019-01-31T18:39:31.388Z,1.41
2019-01-31T18:42:05.289Z,1.40
2019-01-31T18:44:39.178Z,1.35
2019-01-31T18:47:13.181Z,1.34
2019-01-31T18:49:46.994Z,1.32
2019-01-31T18:52:20.245Z,1.31
2019-01-31T18:54:54.348Z,1.30
2019-01-31T18:57:26.839Z,1.27
2019-01-31T18:59:59.470Z,1.26
2019-01-31T19:02:33.455Z,1.24
2019-01-31T19:05:06.108Z,1.22
2019-01-31T19:07:38.719Z,1.22
2019-01-31T19:10:11.978Z,1.20
2019-01-31T19:12:46.098Z,1.20
2019-01-31T19:15:19.967Z,1.19
2019-01-31T19:17:52.881Z,1.17
2019-01-31T19:20:28.843Z,1.14
2019-01-31T19:23:04.282Z,1.11
2019-01-31T19:25:37.858Z,1.08
2019-01-31T19:28:13.147Z,1.07
2019-01-31T19:30:45.152Z,1.06
2019-01-31T19:33:19.195Z,1.06
2019-01-31T19:35:52.960Z,1.03
2019-01-31T19:38:25.996Z,1.02
2019-01-31T19:40:59.827Z,1.01
2019-01-31T19:43:32.311Z,0.98
2019-01-31T19:46:15.844Z,0.95
2019-01-31T19:48:40.656Z,0.96
2019-01-31T19:51:14.351Z,0.94
2019-01-31T19:53:48.465Z,0.93
2019-01-31T19:56:22.622Z,0.92
2019-01-31T19:58:56.072Z,0.88
2019-01-31T20:01:30.302Z,0.87
2019-01-31T20:04:03.200Z,0.87
2019-01-31T20:06:36.737Z,0.87
2019-01-31T20:09:23.845Z,0.84
2019-01-31T20:11:56.705Z,0.85
2019-01-31T20:14:30.829Z,0.83
2019-01-31T20:17:04.313Z,0.83
2019-01-31T20:19:37.189Z,0.83
2019-01-31T20:22:10.411Z,0.83
2019-01-31T20:24:42.787Z,0.81
2019-01-31T20:27:16.919Z,0.80
2019-01-31T20:29:50.361Z,0.81
2019-01-31T20:32:22.772Z,0.78
2019-01-31T20:34:55.756Z,0.74
2019-01-31T20:37:27.701Z,0.73
2019-01-31T20:40:00.819Z,0.74
2019-01-31T20:42:33.513Z,0.74
2019-01-31T20:45:08.053Z,0.75
2019-01-31T20:47:40.569Z,0.76
2019-01-31T20:50:20.256Z,0.77
2019-01-31T20:52:52.809Z,0.76
2019-01-31T20:55:25.274Z,0.74
2019-01-31T20:57:58.350Z,0.73
2019-01-31T21:00:36.987Z,0.75
2019-01-31T21:03:10.836Z,0.78
2019-01-31T21:05:44.729Z,0.77
2019-01-31T21:08:17.878Z,0.75
2019-01-31T21:10:50.314Z,0.76
2019-01-31T21:13:23.133Z,0.77
2019-01-31T21:15:57.656Z,0.77
2019-01-31T21:18:30.693Z,0.81
2019-01-31T21:21:05.409Z,0.83
2019-01-31T21:23:38.710Z,0.83
2019-01-31T21:26:10.803Z,0.83
2019-01-31T21:28:43.665Z,0.85
2019-01-31T21:31:17.652Z,0.88
2019-01-31T21:33:51.726Z,0.89
2019-01-31T21:36:24.768Z,0.90
2019-01-31T21:38:57.896Z,0.88
2019-01-31T21:41:31.788Z,0.88
2019-01-31T21:44:06.358Z,0.87
2019-01-31T21:46:41.000Z,0.87
2019-01-31T21:49:15.875Z,0.88
2019-01-31T21:51:51.202Z,0.91
2019-01-31T21:54:25.601Z,0.94
2019-01-31T21:56:59.587Z,0.92
2019-01-31T21:59:33.438Z,0.92
2019-01-31T22:02:08.439Z,0.92
2019-01-31T22:04:41.432Z,0.88
2019-01-31T22:07:15.268Z,0.87
2019-01-31T22:09:48.854Z,0.84
2019-01-31T22:12:24.648Z,0.84
2019-01-31T22:14:59.150Z,0.83
2019-01-31T22:17:33.548Z,0.82
2019-01-31T22:20:07.546Z,0.79
2019-01-31T22:22:42.230Z,0.77
2019-01-31T22:25:17.974Z,0.72
2019-01-31T22:27:51.832Z,0.73
2019-01-31T22:30:31.643Z,0.71
2019-01-31T22:33:05.967Z,0.69
2019-01-31T22:35:40.608Z,0.69
2019-01-31T22:38:16.022Z,0.69
2019-01-31T22:40:50.538Z,0.69
2019-01-31T22:43:26.346Z,0.68
2019-01-31T22:46:01.739Z,0.66
2019-01-31T22:48:36.529Z,0.69
2019-01-31T22:51:10.548Z,0.69
2019-01-31T22:53:44.287Z,0.70
2019-01-31T22:56:19.119Z,0.69
2019-01-31T22:58:54.730Z,0.69
2019-01-31T23:01:51.791Z,0.67
2019-01-31T23:04:51.824Z,0.65
2019-01-31T23:07:25.420Z,0.61
2019-01-31T23:09:59.536Z,0.61
2019-01-31T23:12:33.281Z,0.63
2019-01-31T23:15:07.217Z,0.64
2019-01-31T23:17:43.504Z,0.61
2019-01-31T23:20:19.654Z,0.62
2019-01-31T23:22:54.452Z,0.61
2019-01-31T23:25:39.390Z,0.60
2019-01-31T23:28:08.299Z,0.59
2019-01-31T23:30:42.591Z,0.60
2019-01-31T23:33:17.590Z,0.60
2019-01-31T23:35:51.964Z,0.61
2019-01-31T23:38:26.717Z,0.62
2019-01-31T23:41:02.025Z,0.59
2019-01-31T23:43:37.153Z,0.57
2019-01-31T23:46:11.624Z,0.53
2019-01-31T23:48:45.839Z,0.50
2019-01-31T23:51:19.701Z,0.50
2019-01-31T23:53:53.979Z,0.47
2019-01-31T23:56:27.366Z,0.45
2019-01-31T23:59:02.442Z,0.45
